createdAt,value
2018-04-07T00:01:36.309Z,6.90
2018-04-07T00:06:39.515Z,6.80
2018-04-07T00:11:42.734Z,6.70
2018-04-07T00:16:46.065Z,6.60
2018-04-07T00:21:49.674Z,6.60
2018-04-07T00:26:53.393Z,6.40
2018-04-07T00:31:57.075Z,6.40
2018-04-07T00:37:00.301Z,6.40
2018-04-07T00:42:03.514Z,6.40
2018-04-07T00:47:07.144Z,6.50
2018-04-07T00:52:10.768Z,6.40
2018-04-07T00:57:15.245Z,6.40
2018-04-07T01:02:18.512Z,6.30
2018-04-07T01:07:21.797Z,6.20
2018-04-07T01:12:25.153Z,6.10
2018-04-07T01:17:28.478Z,6.20
2018-04-07T01:22:31.710Z,6.20
2018-04-07T01:27:35.016Z,6.10
2018-04-07T01:32:38.229Z,6.10
2018-04-07T01:37:41.539Z,5.90
2018-04-07T01:42:45.349Z,5.60
2018-04-07T01:47:48.576Z,5.60
2018-04-07T01:52:52.312Z,5.60
2018-04-07T01:57:55.584Z,5.60
2018-04-07T02:02:58.810Z,5.30
2018-04-07T02:08:04.114Z,5.10
2018-04-07T02:13:07.361Z,4.90
2018-04-07T02:18:11.009Z,4.70
2018-04-07T02:23:14.229Z,4.70
2018-04-07T02:28:17.444Z,4.60
2018-04-07T02:33:20.678Z,4.60
2018-04-07T02:38:23.906Z,4.50
2018-04-07T02:43:27.523Z,4.60
2018-04-07T02:48:30.742Z,4.60
2018-04-07T02:53:33.993Z,4.70
2018-04-07T02:58:37.329Z,4.70
2018-04-07T03:03:40.932Z,4.70
2018-04-07T03:08:44.152Z,4.70
2018-04-07T03:13:47.752Z,4.60
2018-04-07T03:18:51.075Z,4.60
2018-04-07T03:23:54.701Z,4.50
2018-04-07T03:28:58.375Z,4.50
2018-04-07T03:34:01.599Z,4.50
2018-04-07T03:39:05.243Z,4.20
2018-04-07T03:44:08.464Z,4.20
2018-04-07T03:49:11.715Z,3.90
2018-04-07T03:54:14.925Z,3.70
2018-04-07T03:59:18.284Z,3.40
2018-04-07T04:04:21.631Z,3.20
2018-04-07T04:09:24.865Z,3.00
2018-04-07T04:14:28.507Z,3.10
2018-04-07T04:19:31.745Z,3.10
2018-04-07T04:24:35.078Z,3.10
2018-04-07T04:29:38.526Z,3.00
2018-04-07T04:34:41.759Z,3.20
2018-04-07T04:39:45.078Z,3.30
2018-04-07T04:44:48.312Z,3.20
2018-04-07T04:49:51.531Z,3.30
2018-04-07T04:54:54.841Z,3.20
2018-04-07T04:59:58.458Z,3.20
2018-04-07T05:05:02.051Z,3.40
2018-04-07T05:10:05.676Z,3.40
2018-04-07T05:15:09.483Z,3.40
2018-04-07T05:20:12.959Z,3.40
2018-04-07T05:25:16.161Z,3.40
2018-04-07T05:30:19.610Z,3.40
2018-04-07T05:35:22.840Z,3.50
2018-04-07T05:40:26.571Z,3.70
2018-04-07T05:45:29.840Z,3.90
2018-04-07T05:50:33.596Z,4.10
2018-04-07T05:55:36.839Z,4.30
2018-04-07T06:00:40.056Z,4.60
2018-04-07T06:05:44.570Z,4.90
2018-04-07T06:10:52.556Z,5.00
2018-04-07T06:15:55.765Z,5.10
2018-04-07T06:20:59.154Z,5.30
2018-04-07T06:26:02.853Z,5.70
2018-04-07T06:31:06.084Z,5.70
2018-04-07T06:36:09.336Z,6.00
2018-04-07T06:41:12.553Z,6.20
2018-04-07T06:46:15.827Z,6.50
2018-04-07T06:51:19.061Z,6.60
2018-04-07T06:56:22.430Z,6.70
2018-04-07T07:01:25.657Z,7.00
2018-04-07T07:06:28.864Z,7.20
2018-04-07T07:11:32.103Z,7.50
2018-04-07T07:16:35.321Z,7.60
2018-04-07T07:21:38.979Z,7.80
2018-04-07T07:26:42.221Z,7.80
2018-04-07T07:31:45.456Z,7.70
2018-04-07T07:36:49.169Z,8.00
2018-04-07T07:41:52.785Z,8.00
2018-04-07T07:46:56.047Z,8.00
2018-04-07T07:51:59.287Z,8.00
2018-04-07T07:57:02.500Z,8.00
2018-04-07T08:02:06.114Z,8.50
2018-04-07T08:07:09.335Z,8.50
2018-04-07T08:12:13.010Z,8.90
2018-04-07T08:17:16.339Z,8.90
2018-04-07T08:22:19.543Z,8.90
2018-04-07T08:27:22.767Z,8.80
2018-04-07T08:32:26.376Z,8.40
2018-04-07T08:37:29.994Z,8.80
2018-04-07T08:42:33.592Z,8.90
2018-04-07T08:47:36.904Z,8.90
2018-04-07T08:52:40.524Z,9.10
2018-04-07T08:57:44.142Z,9.40
2018-04-07T09:02:47.948Z,9.60
2018-04-07T09:07:51.598Z,9.90
2018-04-07T09:12:54.808Z,9.90
2018-04-07T09:17:58.048Z,9.60
2018-04-07T09:23:01.272Z,9.70
2018-04-07T09:28:04.504Z,9.70
2018-04-07T09:33:08.161Z,9.80
2018-04-07T09:38:11.373Z,9.80
2018-04-07T09:43:14.611Z,10.00
2018-04-07T09:48:17.889Z,10.40
2018-04-07T09:53:21.244Z,11.10
2018-04-07T09:58:24.921Z,11.60
2018-04-07T10:03:28.224Z,11.60
2018-04-07T10:08:31.494Z,11.60
2018-04-07T10:13:34.753Z,11.80
2018-04-07T10:18:38.082Z,11.90
2018-04-07T10:23:41.713Z,12.30
2018-04-07T10:28:44.927Z,12.30
2018-04-07T10:33:48.157Z,12.60
2018-04-07T10:38:51.392Z,13.00
2018-04-07T10:43:54.629Z,13.70
2018-04-07T10:48:58.337Z,14.80
2018-04-07T10:54:02.021Z,15.20
2018-04-07T10:59:05.247Z,15.20
2018-04-07T11:04:08.463Z,14.90
2018-04-07T11:09:12.068Z,15.40
2018-04-07T11:14:15.353Z,15.50
2018-04-07T11:19:18.593Z,15.50
2018-04-07T11:24:22.272Z,15.70
2018-04-07T11:29:25.503Z,15.70
2018-04-07T11:34:28.716Z,17.90
2018-04-07T11:39:37.442Z,21.20
2018-04-07T11:50:12.288Z,23.20
2018-04-07T11:55:15.834Z,23.20
2018-04-07T12:00:19.537Z,24.90
2018-04-07T12:05:22.899Z,24.90
2018-04-07T12:10:26.137Z,25.80
2018-04-07T12:15:29.573Z,25.90
2018-04-07T12:20:32.898Z,25.50
2018-04-07T12:25:36.645Z,25.80
2018-04-07T12:30:40.082Z,25.80
2018-04-07T12:35:43.845Z,25.40
2018-04-07T12:40:47.664Z,25.40
2018-04-07T12:45:50.968Z,25.40
2018-04-07T12:50:54.774Z,27.00
2018-04-07T12:55:58.066Z,27.00
2018-04-07T13:01:01.819Z,26.90
2018-04-07T13:06:05.516Z,27.60
2018-04-07T13:11:08.861Z,27.90
2018-04-07T13:16:12.438Z,27.50
2018-04-07T13:21:16.175Z,23.00
2018-04-07T13:26:19.852Z,21.90
2018-04-07T13:31:23.191Z,21.80
2018-04-07T13:36:26.829Z,23.60
2018-04-07T13:41:30.056Z,23.60
2018-04-07T13:46:33.309Z,22.20
2018-04-07T13:51:36.529Z,23.10
2018-04-07T13:56:40.156Z,24.70
2018-04-07T14:01:43.428Z,24.70
2018-04-07T14:06:46.670Z,26.00
2018-04-07T14:11:49.883Z,26.00
2018-04-07T14:16:53.136Z,25.70
2018-04-07T14:21:56.375Z,25.80
2018-04-07T14:27:00.090Z,25.30
2018-04-07T14:32:03.792Z,26.30
2018-04-07T14:37:07.029Z,26.30
2018-04-07T14:42:10.248Z,26.20
2018-04-07T14:47:13.488Z,26.60
2018-04-07T14:57:51.199Z,27.40
2018-04-07T15:02:54.593Z,26.00
2018-04-07T15:07:57.833Z,24.60
2018-04-07T15:13:01.069Z,23.10
2018-04-07T15:18:04.303Z,22.60
2018-04-07T15:23:07.521Z,22.10
2018-04-07T15:28:10.736Z,21.90
2018-04-07T15:33:14.060Z,21.80
2018-04-07T15:38:17.287Z,21.40
2018-04-07T15:43:20.495Z,21.20
2018-04-07T15:48:23.777Z,21.30
2018-04-07T15:53:26.979Z,21.10
2018-04-07T15:58:30.215Z,20.80
2018-04-07T16:03:33.639Z,20.60
2018-04-07T16:08:36.888Z,20.70
2018-04-07T16:13:40.109Z,20.60
2018-04-07T16:18:43.344Z,20.70
2018-04-07T16:23:46.573Z,20.60
2018-04-07T16:28:50.281Z,20.40
2018-04-07T16:33:54.153Z,20.40
2018-04-07T16:38:57.375Z,21.00
2018-04-07T16:44:00.713Z,21.10
2018-04-07T16:49:03.928Z,20.90
2018-04-07T16:54:07.547Z,20.00
2018-04-07T16:59:11.254Z,19.40
2018-04-07T17:04:14.868Z,18.90
2018-04-07T17:09:18.116Z,18.90
2018-04-07T17:14:21.357Z,18.40
2018-04-07T17:19:24.598Z,18.00
2018-04-07T17:24:28.241Z,17.50
2018-04-07T17:29:31.472Z,17.50
2018-04-07T17:34:34.689Z,17.20
2018-04-07T17:39:37.916Z,16.90
2018-04-07T17:44:41.227Z,16.60
2018-04-07T17:49:44.447Z,16.40
2018-04-07T17:54:48.070Z,15.90
2018-04-07T17:59:51.312Z,15.90
2018-04-07T18:04:54.549Z,15.70
2018-04-07T18:09:57.781Z,15.40
2018-04-07T18:15:01.081Z,15.10
2018-04-07T18:20:04.738Z,14.70
2018-04-07T18:25:08.089Z,14.70
2018-04-07T18:30:11.798Z,14.40
2018-04-07T18:35:15.031Z,14.40
2018-04-07T18:40:18.658Z,14.30
2018-04-07T18:45:21.871Z,14.30
2018-04-07T18:50:25.102Z,14.20
2018-04-07T18:55:28.346Z,13.90
2018-04-07T19:00:32.643Z,13.70
2018-04-07T19:05:35.859Z,13.70
2018-04-07T19:10:39.076Z,13.60
2018-04-07T19:15:42.317Z,13.50
2018-04-07T19:20:45.613Z,13.50
2018-04-07T19:25:49.807Z,13.70
2018-04-07T19:30:53.045Z,13.70
2018-04-07T19:35:56.730Z,14.20
2018-04-07T19:40:59.932Z,14.20
2018-04-07T19:46:03.165Z,14.00
2018-04-07T19:51:06.380Z,13.80
2018-04-07T19:56:10.088Z,13.50
2018-04-07T20:01:13.313Z,13.50
2018-04-07T20:06:17.012Z,13.20
2018-04-07T20:11:20.250Z,13.20
2018-04-07T20:16:23.477Z,13.10
2018-04-07T20:21:26.687Z,12.90
2018-04-07T20:26:29.931Z,12.70
2018-04-07T20:31:33.348Z,12.60
2018-04-07T20:36:36.967Z,12.50
2018-04-07T20:41:40.676Z,12.50
2018-04-07T20:46:43.915Z,12.50
2018-04-07T20:51:47.136Z,12.50
2018-04-07T20:56:50.345Z,12.30
2018-04-07T21:01:53.580Z,12.30
2018-04-07T21:06:56.807Z,12.30
2018-04-07T21:12:00.036Z,12.10
2018-04-07T21:17:03.253Z,11.90
2018-04-07T21:22:06.488Z,11.90
2018-04-07T21:27:09.712Z,11.80
2018-04-07T21:32:13.182Z,11.80
2018-04-07T21:37:16.406Z,11.60
2018-04-07T21:42:19.627Z,11.40
2018-04-07T21:47:22.864Z,11.40
2018-04-07T21:52:26.503Z,11.30
2018-04-07T21:57:29.736Z,11.30
2018-04-07T22:02:32.966Z,11.20
2018-04-07T22:07:36.197Z,11.40
2018-04-07T22:12:39.894Z,11.30
2018-04-07T22:17:43.360Z,11.30
2018-04-07T22:22:46.904Z,11.20
2018-04-07T22:27:50.341Z,11.20
2018-04-07T22:32:53.823Z,11.10
2018-04-07T22:37:57.253Z,11.10
2018-04-07T22:43:00.696Z,11.10
2018-04-07T22:48:04.367Z,11.00
2018-04-07T22:53:07.629Z,11.00
2018-04-07T22:58:10.852Z,10.60
2018-04-07T23:03:14.971Z,10.40
2018-04-07T23:08:18.438Z,10.40
2018-04-07T23:13:21.847Z,10.20
2018-04-07T23:18:25.341Z,10.00
2018-04-07T23:23:33.520Z,9.90
2018-04-07T23:28:38.080Z,9.90
2018-04-07T23:33:41.517Z,10.20
2018-04-07T23:38:45.046Z,10.30
2018-04-07T23:43:48.673Z,10.20
2018-04-07T23:48:52.280Z,10.00
2018-04-07T23:53:55.886Z,9.80
2018-04-07T23:58:59.104Z,9.80
